Terminal Aerodrome Forecast
Issued by NWS

Home | Current Version | Previous Version | Text Only | Print | Product List | Glossary On
Versions: 1 2 3 4 5 6 7 8 9 10 11 12
000
FTUS45 KVEF 150500
TAFEED
TAF
KEED 150525Z 1506/1606 25009KT P6SM SKC
     FM151400 VRB05KT P6SM SKC
     FM151800 17007KT P6SM FEW100
     FM160300 25008KT P6SM SKC=

USA.gov is the U.S. government's official web portal to all federal, state and local government web resources and services.